Time;durP1;ratioP1;P1;durP2;ratioP2;P2;SDS_P1;SDS_P2;PMS_P1;PMS_P2;Temp;Humidity;BMP_temperature;BMP_pressure;BME280_temperature;BME280_humidity;BME280_pressure;Samples;Min_cycle;Max_cycle;Signal;HPM_P1;HPM_P2
2023/11/01 00:00:44;;;;;;;6.40;5.70;;;6.70;99.90;;;;;;4956720;28;20820;-64
2023/11/01 00:03:13;;;;;;;7.43;5.10;;;6.70;99.90;;;;;;4955460;28;20528;-64
2023/11/01 00:05:41;;;;;;;6.90;4.80;;;6.70;99.90;;;;;;4956455;28;20596;-64
2023/11/01 00:08:10;;;;;;;7.07;5.70;;;6.70;99.90;;;;;;4953865;28;20902;-64
2023/11/01 00:10:38;;;;;;;6.17;4.90;;;6.80;99.90;;;;;;4950811;28;20479;-64
2023/11/01 00:13:07;;;;;;;5.93;5.20;;;6.80;99.90;;;;;;4955898;28;20490;-65
2023/11/01 00:15:35;;;;;;;7.97;5.40;;;6.80;99.90;;;;;;4954034;28;20530;-64
2023/11/01 00:18:04;;;;;;;5.67;4.90;;;6.90;99.90;;;;;;4958249;28;20573;-64
2023/11/01 00:20:32;;;;;;;5.33;4.80;;;6.80;99.90;;;;;;4956896;28;20478;-64
2023/11/01 00:23:00;;;;;;;6.57;4.80;;;6.90;99.90;;;;;;4956875;28;20489;-64
2023/11/01 00:25:28;;;;;;;7.50;5.20;;;6.90;99.90;;;;;;4953453;28;20494;-64
2023/11/01 00:27:56;;;;;;;5.50;4.93;;;6.90;99.90;;;;;;4951536;28;20585;-64
2023/11/01 00:30:26;;;;;;;6.40;5.17;;;6.90;99.90;;;;;;4959242;28;20545;-64
2023/11/01 00:32:55;;;;;;;5.80;5.17;;;6.90;99.90;;;;;;4959329;28;20522;-64
2023/11/01 00:35:23;;;;;;;7.27;5.13;;;6.90;99.90;;;;;;4955562;28;20891;-64
2023/11/01 00:37:51;;;;;;;6.47;4.90;;;6.90;99.90;;;;;;4953893;28;20501;-64
2023/11/01 00:40:19;;;;;;;5.80;5.20;;;6.90;99.90;;;;;;4960946;28;20528;-64
2023/11/01 00:42:47;;;;;;;6.60;5.17;;;6.90;99.90;;;;;;4957373;28;20533;-64
2023/11/01 00:45:16;;;;;;;5.73;5.20;;;6.90;99.90;;;;;;4959713;28;20924;-64
2023/11/01 00:47:45;;;;;;;5.93;4.80;;;6.90;99.90;;;;;;4955578;28;20491;-64
2023/11/01 00:50:13;;;;;;;7.43;5.13;;;6.90;99.90;;;;;;4954150;28;20481;-64
2023/11/01 00:52:41;;;;;;;6.40;5.50;;;6.90;99.90;;;;;;4955956;28;20692;-64
2023/11/01 00:55:09;;;;;;;6.30;5.47;;;7.00;99.90;;;;;;4958039;28;20467;-64
2023/11/01 00:57:37;;;;;;;5.50;4.87;;;7.00;99.90;;;;;;4955308;28;20565;-64
2023/11/01 01:00:07;;;;;;;5.87;5.00;;;7.00;99.90;;;;;;4954585;28;20637;-64
2023/11/01 01:02:35;;;;;;;5.47;4.87;;;7.00;99.90;;;;;;4957146;28;20992;-64
2023/11/01 01:05:05;;;;;;;6.83;5.20;;;7.00;99.90;;;;;;4955295;28;20513;-64
2023/11/01 01:07:33;;;;;;;6.20;5.40;;;7.00;99.90;;;;;;4955829;28;20470;-64
2023/11/01 01:10:01;;;;;;;5.93;5.40;;;7.00;99.90;;;;;;4956960;28;21189;-64
2023/11/01 01:12:29;;;;;;;8.87;6.00;;;7.10;99.90;;;;;;4956695;28;20494;-64
2023/11/01 01:14:58;;;;;;;6.20;5.60;;;7.10;99.90;;;;;;4946684;28;20587;-65
2023/11/01 01:17:26;;;;;;;6.30;5.43;;;7.10;99.90;;;;;;4950838;28;20474;-64
2023/11/01 01:19:54;;;;;;;7.80;6.50;;;7.10;99.90;;;;;;4941706;28;20613;-64
2023/11/01 01:22:24;;;;;;;8.63;6.07;;;7.10;99.90;;;;;;4949936;28;20589;-64
2023/11/01 01:24:52;;;;;;;6.27;5.47;;;7.10;99.90;;;;;;4950056;28;20914;-64
2023/11/01 01:27:20;;;;;;;6.47;5.23;;;7.10;99.90;;;;;;4952142;28;21416;-64
2023/11/01 01:29:48;;;;;;;5.97;5.30;;;7.10;99.90;;;;;;4953861;28;20497;-64
2023/11/01 01:32:16;;;;;;;5.30;4.70;;;7.10;99.90;;;;;;4956173;28;21034;-63
2023/11/01 01:34:44;;;;;;;8.40;4.87;;;7.10;99.90;;;;;;4957068;28;21016;-63
2023/11/01 01:37:12;;;;;;;5.93;5.20;;;7.10;99.90;;;;;;4946106;28;20498;-64
2023/11/01 01:39:41;;;;;;;5.63;5.00;;;7.10;99.90;;;;;;4954128;28;20500;-66
2023/11/01 01:42:09;;;;;;;9.50;5.10;;;7.10;99.90;;;;;;4956846;28;20507;-64
2023/11/01 01:44:37;;;;;;;5.47;4.77;;;7.10;99.90;;;;;;4953052;28;20479;-64
2023/11/01 01:47:05;;;;;;;6.23;4.20;;;7.10;99.90;;;;;;4950170;28;21005;-64
2023/11/01 01:49:34;;;;;;;7.07;5.43;;;7.20;99.90;;;;;;4954301;28;20523;-64
2023/11/01 01:52:12;;;;;;;4.43;3.87;;;7.20;99.90;;;;;;4952355;28;21059;-64
2023/11/01 01:54:42;;;;;;;6.07;4.47;;;7.20;99.90;;;;;;4952838;28;20474;-64
2023/11/01 01:57:10;;;;;;;6.03;4.33;;;7.20;99.90;;;;;;4955821;28;20482;-64
2023/11/01 01:59:39;;;;;;;4.93;4.50;;;7.20;99.90;;;;;;4954087;28;21003;-64
2023/11/01 02:02:08;;;;;;;4.90;4.27;;;7.20;99.90;;;;;;4952638;28;20504;-64
2023/11/01 02:04:37;;;;;;;4.97;4.57;;;7.20;99.90;;;;;;4950207;28;20466;-64
2023/11/01 02:07:05;;;;;;;6.80;5.07;;;7.20;99.90;;;;;;4951576;28;20509;-64
2023/11/01 02:09:33;;;;;;;6.93;4.87;;;7.20;99.90;;;;;;4949772;28;20497;-64
2023/11/01 02:12:03;;;;;;;4.77;4.37;;;7.20;99.90;;;;;;4948698;28;20508;-64
2023/11/01 02:14:31;;;;;;;8.30;4.10;;;7.20;99.90;;;;;;4939367;28;21039;-64
2023/11/01 02:16:59;;;;;;;4.93;4.40;;;7.20;99.90;;;;;;4947335;28;20467;-63
2023/11/01 02:19:27;;;;;;;4.77;3.93;;;7.30;99.90;;;;;;4946460;28;20594;-64
2023/11/01 02:21:55;;;;;;;4.63;4.00;;;7.30;99.90;;;;;;4942177;28;20482;-64
2023/11/01 02:24:24;;;;;;;5.87;4.03;;;7.30;99.90;;;;;;4947549;28;20474;-63
2023/11/01 02:26:52;;;;;;;4.37;3.53;;;7.40;99.90;;;;;;4950471;28;20497;-64
2023/11/01 02:29:22;;;;;;;5.30;3.70;;;7.40;99.90;;;;;;4947947;28;20983;-64
2023/11/01 02:31:51;;;;;;;5.90;3.37;;;7.30;99.90;;;;;;4948014;28;20546;-64
2023/11/01 02:34:19;;;;;;;3.90;3.60;;;7.30;99.90;;;;;;4950047;28;20505;-64
2023/11/01 02:36:48;;;;;;;4.57;3.77;;;7.30;99.90;;;;;;4952472;28;20473;-64
2023/11/01 02:39:17;;;;;;;4.10;3.73;;;7.20;99.90;;;;;;4953380;28;20494;-64
2023/11/01 02:41:46;;;;;;;6.57;3.50;;;7.20;99.90;;;;;;4955583;28;20469;-64
2023/11/01 02:44:14;;;;;;;6.47;3.33;;;7.30;99.90;;;;;;4955657;28;20521;-64
2023/11/01 02:46:42;;;;;;;3.90;2.80;;;7.20;99.90;;;;;;4956421;28;20494;-64
2023/11/01 02:49:10;;;;;;;5.10;2.80;;;7.20;99.90;;;;;;4953621;28;20597;-64
2023/11/01 02:51:38;;;;;;;3.00;2.70;;;7.20;99.90;;;;;;4953873;28;20502;-64
2023/11/01 02:54:06;;;;;;;3.10;2.30;;;7.20;99.90;;;;;;4957558;28;20528;-64
2023/11/01 02:56:34;;;;;;;3.67;2.87;;;7.20;99.90;;;;;;4957116;28;20562;-64
2023/11/01 02:59:04;;;;;;;4.33;1.73;;;7.30;99.90;;;;;;4957039;28;21034;-64
2023/11/01 03:01:33;;;;;;;2.70;2.20;;;7.30;99.90;;;;;;4955663;28;20563;-64
2023/11/01 03:04:01;;;;;;;3.37;2.27;;;7.40;99.90;;;;;;4955941;28;21071;-64
2023/11/01 03:06:30;;;;;;;4.03;2.43;;;7.30;99.90;;;;;;4953400;28;20501;-64
2023/11/01 03:08:58;;;;;;;3.70;2.03;;;7.30;99.90;;;;;;4956078;28;20557;-64
2023/11/01 03:11:26;;;;;;;4.20;2.10;;;7.30;99.90;;;;;;4955570;28;20569;-64
2023/11/01 03:13:54;;;;;;;2.80;2.43;;;7.30;99.90;;;;;;4949216;28;20581;-64
2023/11/01 03:16:23;;;;;;;2.43;1.97;;;7.30;99.90;;;;;;4956337;28;20549;-64
2023/11/01 03:18:51;;;;;;;3.27;2.33;;;7.30;99.90;;;;;;4956183;28;20895;-64
2023/11/01 03:21:19;;;;;;;4.60;2.00;;;7.30;99.90;;;;;;4951518;28;20568;-64
2023/11/01 03:23:48;;;;;;;2.37;1.50;;;7.30;99.90;;;;;;4955629;28;20586;-64
2023/11/01 03:26:16;;;;;;;2.33;1.50;;;7.30;99.90;;;;;;4955334;28;21096;-64
2023/11/01 03:28:45;;;;;;;2.80;1.90;;;7.40;99.90;;;;;;4954281;28;20494;-64
2023/11/01 03:31:13;;;;;;;2.50;1.50;;;7.40;99.90;;;;;;4954578;28;20556;-64
2023/11/01 03:33:42;;;;;;;4.40;1.30;;;7.40;99.90;;;;;;4956018;28;20821;-64
2023/11/01 03:36:11;;;;;;;1.90;1.50;;;7.40;99.90;;;;;;4955642;28;20581;-64
2023/11/01 03:38:39;;;;;;;4.23;1.60;;;7.40;99.90;;;;;;4957805;28;20551;-64
2023/11/01 03:41:07;;;;;;;1.53;1.30;;;7.40;99.90;;;;;;4959148;28;20485;-64
2023/11/01 03:43:35;;;;;;;2.97;2.00;;;7.30;99.90;;;;;;4953014;28;20508;-64
2023/11/01 03:46:05;;;;;;;3.70;1.70;;;7.30;99.90;;;;;;4958337;28;20586;-64
2023/11/01 03:48:35;;;;;;;3.80;1.57;;;7.40;99.90;;;;;;4955350;28;20494;-70
2023/11/01 03:51:05;;;;;;;4.90;2.00;;;7.30;99.90;;;;;;4957114;28;20557;-64
2023/11/01 03:53:33;;;;;;;2.80;1.57;;;7.30;99.90;;;;;;4957495;28;20521;-65
2023/11/01 03:56:04;;;;;;;3.10;1.60;;;7.30;99.90;;;;;;4953961;28;20481;-64
2023/11/01 03:58:32;;;;;;;4.50;1.70;;;7.30;99.90;;;;;;4954452;28;20522;-64
2023/11/01 04:01:00;;;;;;;1.90;1.70;;;7.30;99.90;;;;;;4955533;28;20506;-64
2023/11/01 04:03:28;;;;;;;1.50;1.40;;;7.30;99.90;;;;;;4955485;28;20495;-64
2023/11/01 04:05:56;;;;;;;3.10;1.90;;;7.30;99.90;;;;;;4957145;28;20677;-64
2023/11/01 04:08:25;;;;;;;2.00;1.50;;;7.30;99.90;;;;;;4955452;28;20560;-64
2023/11/01 04:10:53;;;;;;;2.30;1.63;;;7.30;99.90;;;;;;4958308;28;20921;-64
2023/11/01 04:13:21;;;;;;;2.70;1.70;;;7.30;99.90;;;;;;4956160;28;20618;-64
2023/11/01 04:15:49;;;;;;;3.33;1.83;;;7.40;99.90;;;;;;4957585;28;20576;-64
2023/11/01 04:18:17;;;;;;;1.83;1.40;;;7.40;99.90;;;;;;4955722;28;20499;-64
2023/11/01 04:20:45;;;;;;;2.10;1.70;;;7.40;99.90;;;;;;4955680;28;20491;-64
2023/11/01 04:23:13;;;;;;;2.53;1.57;;;7.40;99.90;;;;;;4958929;28;20505;-64
2023/11/01 04:25:43;;;;;;;2.10;1.47;;;7.40;99.90;;;;;;4960887;28;20462;-64
2023/11/01 04:28:11;;;;;;;2.60;1.50;;;7.40;99.90;;;;;;4953635;28;20581;-64
2023/11/01 04:30:40;;;;;;;1.60;1.50;;;7.40;99.90;;;;;;4955443;28;20582;-64
2023/11/01 04:33:10;;;;;;;2.30;1.60;;;7.40;99.90;;;;;;4960110;28;20561;-64
2023/11/01 04:35:38;;;;;;;1.93;1.70;;;7.40;99.90;;;;;;4956556;28;20478;-64
2023/11/01 04:38:07;;;;;;;1.83;1.50;;;7.40;99.90;;;;;;4956615;28;20898;-64
2023/11/01 04:40:35;;;;;;;1.63;1.50;;;7.40;99.90;;;;;;4956904;28;20486;-64
2023/11/01 04:43:05;;;;;;;1.60;1.37;;;7.40;99.90;;;;;;4960005;28;20584;-64
2023/11/01 04:45:33;;;;;;;2.00;1.60;;;7.40;99.90;;;;;;4957572;28;20879;-64
2023/11/01 04:48:03;;;;;;;2.00;1.37;;;7.40;99.90;;;;;;4957556;28;20533;-64
2023/11/01 04:50:31;;;;;;;2.70;1.50;;;7.40;99.90;;;;;;4955979;28;20897;-64
2023/11/01 04:52:59;;;;;;;1.87;1.27;;;7.40;99.90;;;;;;4956988;28;20532;-64
2023/11/01 04:55:27;;;;;;;2.20;1.40;;;7.40;99.90;;;;;;4964816;28;20505;-64
2023/11/01 04:57:55;;;;;;;1.80;1.70;;;7.40;99.90;;;;;;4961518;28;20560;-63
2023/11/01 05:00:25;;;;;;;2.10;1.43;;;7.40;99.90;;;;;;4965203;28;20538;-63
2023/11/01 05:02:53;;;;;;;3.07;1.83;;;7.40;99.90;;;;;;4960676;28;20509;-64
2023/11/01 05:05:21;;;;;;;3.40;1.53;;;7.40;99.90;;;;;;4959583;28;20500;-64
2023/11/01 05:07:49;;;;;;;1.60;1.20;;;7.40;99.90;;;;;;4959309;28;20494;-64
2023/11/01 05:10:17;;;;;;;4.40;2.83;;;7.40;99.90;;;;;;4955045;28;20555;-63
2023/11/01 05:12:45;;;;;;;2.03;1.43;;;7.40;99.90;;;;;;4956344;28;21137;-63
2023/11/01 05:15:13;;;;;;;1.57;1.47;;;7.40;99.90;;;;;;4958846;28;20972;-64
2023/11/01 05:17:43;;;;;;;2.10;1.27;;;7.40;99.90;;;;;;4959316;28;20545;-64
2023/11/01 05:20:12;;;;;;;4.00;1.53;;;7.30;99.90;;;;;;4955554;28;20492;-64
2023/11/01 05:22:41;;;;;;;3.20;1.80;;;7.30;99.90;;;;;;4959796;28;20893;-64
2023/11/01 05:25:13;;;;;;;2.07;1.50;;;7.40;99.90;;;;;;4956876;28;20746;-64
2023/11/01 05:27:42;;;;;;;1.47;1.30;;;7.40;99.90;;;;;;4956015;28;21002;-63
2023/11/01 05:30:14;;;;;;;3.17;1.53;;;7.40;99.90;;;;;;4957003;28;20607;-64
2023/11/01 05:32:46;;;;;;;2.03;1.30;;;7.40;99.90;;;;;;4951382;28;20862;-64
2023/11/01 05:35:15;;;;;;;1.93;1.63;;;7.40;99.90;;;;;;4956209;28;20494;-64
2023/11/01 05:37:43;;;;;;;2.70;1.67;;;7.40;99.90;;;;;;4955894;28;20474;-63
2023/11/01 05:40:16;;;;;;;2.10;1.60;;;7.40;99.90;;;;;;4956190;28;21098;-64
2023/11/01 05:42:45;;;;;;;1.50;1.40;;;7.40;99.90;;;;;;4957484;28;20529;-64
2023/11/01 05:45:15;;;;;;;2.20;1.50;;;7.30;99.90;;;;;;4952467;28;20484;-63
2023/11/01 05:47:49;;;;;;;2.10;1.77;;;7.40;99.90;;;;;;4953076;28;20480;-64
2023/11/01 05:50:19;;;;;;;1.73;1.63;;;7.30;99.90;;;;;;4949903;28;20920;-64
2023/11/01 05:52:47;;;;;;;2.60;1.70;;;7.30;99.90;;;;;;4953327;28;20517;-64
2023/11/01 05:55:16;;;;;;;2.03;1.60;;;7.30;99.90;;;;;;4951379;28;20540;-64
2023/11/01 05:57:57;;;;;;;1.50;1.40;;;7.30;99.90;;;;;;4953476;28;20502;-64
2023/11/01 06:00:25;;;;;;;4.63;1.70;;;7.30;99.90;;;;;;4950433;28;20541;-64
2023/11/01 06:02:54;;;;;;;4.50;1.60;;;7.30;99.90;;;;;;4950255;28;21093;-64
2023/11/01 06:05:22;;;;;;;2.00;1.77;;;7.30;99.90;;;;;;4955690;28;20494;-64
2023/11/01 06:07:51;;;;;;;1.83;1.63;;;7.30;99.90;;;;;;4957284;28;20471;-64
2023/11/01 06:10:20;;;;;;;2.03;1.77;;;7.20;99.90;;;;;;4959351;28;20577;-64
2023/11/01 06:12:48;;;;;;;2.70;1.67;;;7.20;99.90;;;;;;4954516;28;21023;-64
2023/11/01 06:15:16;;;;;;;2.50;1.93;;;7.20;99.90;;;;;;4958747;28;20471;-64
2023/11/01 06:17:44;;;;;;;3.43;2.00;;;7.20;99.90;;;;;;4948127;28;20518;-62
2023/11/01 06:20:15;;;;;;;3.37;2.10;;;7.30;99.90;;;;;;4942586;28;20514;-62
2023/11/01 06:22:43;;;;;;;8.43;2.30;;;7.30;99.90;;;;;;4950764;28;21004;-61
2023/11/01 06:25:11;;;;;;;3.53;2.60;;;7.30;99.90;;;;;;4952816;28;20934;-63
2023/11/01 06:27:39;;;;;;;4.47;2.53;;;7.30;99.90;;;;;;4950078;28;20513;-61
2023/11/01 06:30:09;;;;;;;2.37;2.17;;;7.30;99.90;;;;;;4955465;28;20492;-62
2023/11/01 06:32:37;;;;;;;4.77;2.90;;;7.30;99.90;;;;;;4939860;28;20490;-61
2023/11/01 06:35:06;;;;;;;4.67;2.90;;;7.30;99.90;;;;;;4931575;28;20484;-62
2023/11/01 06:37:36;;;;;;;5.50;2.93;;;7.30;99.90;;;;;;4944444;28;20990;-61
2023/11/01 06:40:05;;;;;;;4.43;2.93;;;7.40;99.90;;;;;;4945195;28;20577;-62
2023/11/01 06:42:33;;;;;;;4.53;2.77;;;7.30;99.90;;;;;;4944017;28;20588;-62
2023/11/01 06:45:01;;;;;;;3.53;2.90;;;7.30;99.90;;;;;;4939964;28;20569;-62
2023/11/01 06:47:29;;;;;;;4.50;2.80;;;7.40;99.90;;;;;;4947328;28;20475;-64
2023/11/01 06:49:57;;;;;;;3.90;2.93;;;7.40;99.90;;;;;;4943517;28;20580;-61
2023/11/01 06:52:25;;;;;;;4.40;3.33;;;7.40;99.90;;;;;;4949774;28;21071;-62
2023/11/01 06:54:54;;;;;;;5.90;2.90;;;7.40;99.90;;;;;;4949608;28;20565;-62
2023/11/01 06:57:22;;;;;;;4.47;3.60;;;7.40;99.90;;;;;;4950599;28;20492;-62
2023/11/01 06:59:50;;;;;;;5.70;3.80;;;7.40;99.90;;;;;;4952786;28;20883;-62
2023/11/01 07:02:18;;;;;;;4.70;3.43;;;7.40;99.90;;;;;;4949504;28;21016;-62
2023/11/01 07:04:48;;;;;;;5.03;3.23;;;7.40;99.90;;;;;;4944712;28;20486;-62
2023/11/01 07:07:16;;;;;;;6.10;3.13;;;7.40;99.90;;;;;;4948358;28;20480;-62
2023/11/01 07:09:47;;;;;;;5.93;3.83;;;7.40;99.90;;;;;;4947329;28;20820;-62
2023/11/01 07:12:19;;;;;;;7.37;3.50;;;7.40;99.90;;;;;;4952709;28;21001;-62
2023/11/01 07:14:46;;;;;;;5.77;3.30;;;7.40;99.90;;;;;;4947519;28;20554;-62
2023/11/01 07:17:15;;;;;;;6.27;3.80;;;7.50;99.90;;;;;;4945283;28;20479;-62
2023/11/01 07:19:43;;;;;;;5.30;3.33;;;7.50;99.90;;;;;;4949454;28;20609;-62
2023/11/01 07:22:11;;;;;;;5.73;3.97;;;7.50;99.90;;;;;;4938872;28;20504;-62
2023/11/01 07:24:39;;;;;;;5.53;4.40;;;7.50;99.90;;;;;;4948778;28;20605;-62
2023/11/01 07:27:07;;;;;;;6.90;4.07;;;7.60;99.90;;;;;;4952078;28;20637;-62
2023/11/01 07:29:36;;;;;;;5.90;4.17;;;7.50;99.90;;;;;;4949141;28;20490;-62
2023/11/01 07:32:05;;;;;;;7.73;3.77;;;7.60;99.90;;;;;;4947638;28;20556;-62
2023/11/01 07:34:33;;;;;;;5.93;4.23;;;7.60;99.90;;;;;;4961306;28;20482;-62
2023/11/01 07:37:01;;;;;;;6.00;3.90;;;7.60;99.90;;;;;;4945631;28;20641;-62
2023/11/01 07:39:29;;;;;;;7.20;4.40;;;7.60;99.90;;;;;;4945128;28;20486;-62
2023/11/01 07:41:57;;;;;;;6.53;4.30;;;7.60;99.90;;;;;;4947072;28;20890;-62
2023/11/01 07:44:25;;;;;;;6.50;4.07;;;7.60;99.90;;;;;;4946620;28;20823;-62
2023/11/01 07:46:55;;;;;;;8.70;3.93;;;7.60;99.90;;;;;;4949109;28;20565;-62
2023/11/01 07:49:23;;;;;;;7.53;4.43;;;7.60;99.90;;;;;;4942142;28;20948;-62
2023/11/01 07:51:49;;;;;;;8.43;4.53;;;7.70;99.90;;;;;;4949685;28;20557;-62
2023/11/01 07:54:17;;;;;;;10.30;4.70;;;7.70;99.90;;;;;;4953944;28;20473;-62
2023/11/01 07:56:45;;;;;;;15.13;5.33;;;7.80;99.90;;;;;;4949775;28;20677;-64
2023/11/01 07:59:13;;;;;;;7.63;4.93;;;7.70;99.90;;;;;;4946653;28;20986;-62
2023/11/01 08:01:42;;;;;;;7.93;4.70;;;7.80;99.90;;;;;;4946026;28;20975;-62
2023/11/01 08:04:11;;;;;;;8.27;4.73;;;7.80;99.90;;;;;;4953087;28;20478;-62
2023/11/01 08:06:39;;;;;;;8.70;5.00;;;7.80;99.90;;;;;;4951786;28;20477;-62
2023/11/01 08:09:07;;;;;;;8.03;4.80;;;7.80;99.90;;;;;;4946060;28;20524;-62
2023/11/01 08:11:35;;;;;;;8.13;4.60;;;7.90;99.90;;;;;;4946083;28;20568;-62
2023/11/01 08:14:06;;;;;;;10.00;4.70;;;7.90;99.90;;;;;;4945611;28;20494;-62
2023/11/01 08:16:34;;;;;;;6.10;4.60;;;7.90;99.90;;;;;;4951749;28;20981;-62
2023/11/01 08:19:02;;;;;;;15.27;5.87;;;7.90;99.90;;;;;;4951624;28;20595;-62
2023/11/01 08:21:32;;;;;;;9.57;5.63;;;8.00;99.90;;;;;;4950860;28;20580;-62
2023/11/01 08:24:00;;;;;;;8.77;5.07;;;8.00;99.90;;;;;;4941275;28;21136;-62
2023/11/01 08:26:28;;;;;;;9.97;5.17;;;8.00;99.90;;;;;;4951432;28;20660;-62
2023/11/01 08:28:56;;;;;;;6.40;5.00;;;8.10;99.90;;;;;;4947520;28;20502;-62
2023/11/01 08:31:24;;;;;;;8.40;5.47;;;8.20;99.90;;;;;;4945135;28;20503;-61
2023/11/01 08:33:52;;;;;;;8.83;5.27;;;8.10;99.90;;;;;;4945627;28;20586;-62
2023/11/01 08:36:20;;;;;;;7.20;5.87;;;8.20;99.90;;;;;;4948007;28;20502;-62
2023/11/01 08:38:50;;;;;;;7.33;5.40;;;8.20;99.90;;;;;;4949124;28;20788;-62
2023/11/01 08:41:19;;;;;;;8.50;5.83;;;8.20;99.90;;;;;;4942735;28;20588;-62
2023/11/01 08:43:47;;;;;;;7.27;5.40;;;8.30;99.90;;;;;;4951197;28;20605;-62
2023/11/01 08:46:15;;;;;;;16.33;7.43;;;8.30;99.90;;;;;;4957226;28;20556;-61
2023/11/01 08:48:43;;;;;;;9.73;6.10;;;8.30;99.90;;;;;;4949850;28;20498;-62
2023/11/01 08:51:11;;;;;;;8.87;5.23;;;8.30;99.90;;;;;;4954444;28;20513;-62
2023/11/01 08:53:39;;;;;;;6.83;5.17;;;8.40;99.90;;;;;;4954276;28;20581;-62
2023/11/01 08:56:09;;;;;;;6.97;5.33;;;8.40;99.90;;;;;;4951638;28;20948;-62
2023/11/01 08:58:38;;;;;;;10.90;6.30;;;8.40;99.90;;;;;;4947996;28;20722;-62
2023/11/01 09:01:06;;;;;;;9.83;5.60;;;8.50;99.90;;;;;;4954650;28;20489;-61
2023/11/01 09:03:34;;;;;;;6.93;5.73;;;8.50;99.90;;;;;;4948039;28;20589;-62
2023/11/01 09:06:03;;;;;;;10.60;6.90;;;8.60;99.90;;;;;;4944706;28;20485;-62
2023/11/01 09:08:31;;;;;;;13.87;6.43;;;8.60;99.90;;;;;;4946091;28;20882;-61
2023/11/01 09:10:59;;;;;;;11.00;6.20;;;8.60;99.90;;;;;;4951845;28;20494;-62
2023/11/01 09:13:28;;;;;;;14.43;6.27;;;8.70;99.90;;;;;;4951261;28;20498;-62
2023/11/01 09:15:56;;;;;;;15.27;7.10;;;8.70;99.90;;;;;;4950714;28;20558;-62
2023/11/01 09:18:24;;;;;;;17.07;7.97;;;8.80;99.90;;;;;;4950651;28;21089;-62
2023/11/01 09:20:52;;;;;;;13.00;6.57;;;8.80;99.90;;;;;;4951249;28;20475;-62
2023/11/01 09:23:20;;;;;;;17.30;7.00;;;8.80;99.90;;;;;;4950838;28;20498;-62
2023/11/01 09:25:48;;;;;;;14.30;7.30;;;8.90;99.90;;;;;;4951652;28;20561;-62
2023/11/01 09:28:16;;;;;;;13.07;7.10;;;8.90;99.90;;;;;;4950375;28;20497;-62
2023/11/01 09:30:46;;;;;;;10.03;6.60;;;8.90;99.90;;;;;;4950246;28;20498;-61
2023/11/01 09:33:14;;;;;;;9.73;6.87;;;8.90;99.90;;;;;;4951787;28;20576;-62
2023/11/01 09:35:42;;;;;;;13.53;7.20;;;8.90;99.90;;;;;;4950198;28;20482;-62
2023/11/01 09:38:10;;;;;;;8.33;6.10;;;8.90;99.90;;;;;;4947117;28;20538;-62
2023/11/01 09:40:38;;;;;;;11.17;7.23;;;8.90;99.90;;;;;;4949273;28;20502;-62
2023/11/01 09:43:08;;;;;;;10.23;6.53;;;9.00;99.90;;;;;;4947850;28;20596;-61
2023/11/01 09:45:37;;;;;;;12.53;6.47;;;9.00;99.90;;;;;;4954349;28;20507;-62
2023/11/01 09:48:07;;;;;;;13.60;6.87;;;9.10;99.90;;;;;;4947530;28;20541;-62
2023/11/01 09:50:37;;;;;;;10.60;7.07;;;9.20;99.90;;;;;;4962331;28;20505;-62
2023/11/01 09:53:05;;;;;;;11.40;6.27;;;9.20;99.90;;;;;;4954057;28;20490;-62
2023/11/01 09:55:33;;;;;;;11.50;6.50;;;9.30;99.90;;;;;;4955766;28;20479;-62
2023/11/01 09:58:02;;;;;;;8.80;5.97;;;9.40;99.90;;;;;;4953197;28;21036;-62
2023/11/01 10:00:31;;;;;;;7.10;6.07;;;9.40;99.90;;;;;;4955823;28;21223;-62
2023/11/01 10:02:59;;;;;;;8.57;6.60;;;9.50;99.90;;;;;;4955219;28;21050;-62
2023/11/01 10:05:28;;;;;;;12.50;6.50;;;9.60;99.90;;;;;;4957702;28;20475;-62
2023/11/01 10:07:57;;;;;;;12.77;7.60;;;9.70;99.90;;;;;;4958278;28;20621;-62
2023/11/01 10:10:25;;;;;;;15.80;7.20;;;9.80;99.90;;;;;;4957988;28;21059;-62
2023/11/01 10:12:53;;;;;;;10.87;7.50;;;9.90;99.90;;;;;;4957284;28;20524;-62
2023/11/01 10:15:22;;;;;;;9.43;6.40;;;9.90;99.90;;;;;;4956983;28;20467;-62
2023/11/01 10:17:52;;;;;;;12.93;8.30;;;9.90;99.90;;;;;;4954884;28;20552;-62
2023/11/01 10:20:24;;;;;;;15.00;7.27;;;9.90;99.90;;;;;;4957860;28;20477;-62
2023/11/01 10:22:53;;;;;;;11.80;7.70;;;10.00;99.90;;;;;;4955818;28;20500;-62
2023/11/01 10:25:22;;;;;;;8.80;6.10;;;10.00;99.90;;;;;;4949572;28;20500;-62
2023/11/01 10:27:50;;;;;;;9.37;6.67;;;10.00;99.90;;;;;;4954177;28;20474;-62
2023/11/01 10:30:18;;;;;;;8.73;6.23;;;10.00;99.90;;;;;;4957509;28;20584;-62
2023/11/01 10:32:57;;;;;;;10.67;6.53;;;10.10;99.90;;;;;;4957933;28;21165;-63
2023/11/01 10:35:26;;;;;;;9.00;6.53;;;10.10;99.90;;;;;;4956064;28;20477;-62
2023/11/01 10:37:58;;;;;;;8.63;6.97;;;10.10;99.90;;;;;;4957322;28;20979;-62
2023/11/01 10:40:27;;;;;;;7.93;7.23;;;10.10;99.90;;;;;;4958499;28;20478;-62
2023/11/01 10:42:58;;;;;;;12.10;7.47;;;10.10;99.90;;;;;;4956003;28;20894;-62
2023/11/01 10:45:27;;;;;;;11.90;8.30;;;10.10;99.90;;;;;;4957333;28;20572;-63
2023/11/01 10:47:55;;;;;;;11.73;7.97;;;10.20;99.90;;;;;;4953149;28;20561;-61
2023/11/01 10:50:24;;;;;;;9.60;7.57;;;10.20;99.90;;;;;;4955930;28;20477;-62
2023/11/01 10:52:52;;;;;;;14.70;7.60;;;10.30;99.90;;;;;;4950365;28;20534;-62
2023/11/01 10:55:24;;;;;;;10.30;7.40;;;10.30;99.90;;;;;;4952920;28;20877;-62
2023/11/01 10:57:52;;;;;;;12.17;8.10;;;10.40;99.90;;;;;;4955899;28;20554;-62
2023/11/01 11:00:31;;;;;;;12.80;7.40;;;10.40;99.90;;;;;;4954111;28;20557;-62
2023/11/01 11:03:04;;;;;;;13.57;8.27;;;10.50;99.90;;;;;;4955641;28;20494;-62
2023/11/01 11:05:35;;;;;;;11.37;7.80;;;10.60;99.90;;;;;;4955953;28;20855;-62
2023/11/01 11:08:10;;;;;;;11.77;6.70;;;10.60;99.90;;;;;;4953509;28;20539;-62
2023/11/01 11:10:42;;;;;;;9.10;7.43;;;10.70;99.90;;;;;;4957235;28;20576;-62
2023/11/01 11:13:26;;;;;;;10.60;7.13;;;10.80;99.90;;;;;;4957263;28;21333;-62
2023/11/01 11:16:01;;;;;;;11.43;7.67;;;10.80;99.90;;;;;;4954737;28;20482;-62
2023/11/01 11:18:45;;;;;;;11.80;7.10;;;10.90;99.90;;;;;;4952536;28;20560;-62
2023/11/01 11:21:47;;;;;;;9.87;7.40;;;10.90;99.90;;;;;;4955329;28;20549;-62
2023/11/01 11:24:52;;;;;;;8.23;6.30;;;11.00;99.90;;;;;;4957573;28;20505;-62
2023/11/01 11:27:52;;;;;;;8.57;7.07;;;11.10;99.90;;;;;;4955858;28;20478;-62
2023/11/01 11:30:58;;;;;;;8.80;5.83;;;11.20;99.90;;;;;;4947607;28;20486;-62
2023/11/01 11:33:27;;;;;;;7.57;6.80;;;11.20;99.90;;;;;;4955629;28;20557;-62
2023/11/01 11:36:08;;;;;;;7.10;6.40;;;11.30;99.90;;;;;;4956870;28;20481;-62
2023/11/01 11:38:37;;;;;;;6.87;6.17;;;11.30;99.90;;;;;;4954854;28;20513;-62
2023/11/01 11:41:15;;;;;;;7.27;6.50;;;11.30;99.90;;;;;;4955171;28;20473;-62
2023/11/01 11:44:08;;;;;;;9.80;6.67;;;11.30;99.90;;;;;;4956039;28;20987;-65
2023/11/01 11:46:40;;;;;;;11.83;6.40;;;11.30;99.90;;;;;;4957471;28;20902;-65
2023/11/01 11:49:09;;;;;;;9.17;5.80;;;11.30;99.90;;;;;;4958570;28;20521;-65
2023/11/01 11:51:39;;;;;;;7.73;6.13;;;11.40;99.90;;;;;;4955136;28;20987;-64
2023/11/01 11:54:11;;;;;;;7.17;6.47;;;11.40;99.90;;;;;;4956930;28;20595;-64
2023/11/01 11:56:40;;;;;;;6.10;5.50;;;11.40;99.90;;;;;;4953488;28;20980;-65
2023/11/01 11:59:10;;;;;;;9.37;6.73;;;11.40;99.90;;;;;;4954532;28;20490;-65
2023/11/01 12:01:39;;;;;;;7.40;6.63;;;11.40;99.90;;;;;;4953191;28;20477;-65
2023/11/01 12:04:08;;;;;;;6.93;6.20;;;11.40;99.90;;;;;;4953632;28;20529;-65
2023/11/01 12:06:41;;;;;;;6.57;5.97;;;11.40;99.90;;;;;;4953269;28;20554;-65
2023/11/01 12:09:17;;;;;;;7.03;6.33;;;11.40;99.90;;;;;;4951837;28;20935;-64
2023/11/01 12:11:50;;;;;;;7.50;6.37;;;11.40;99.90;;;;;;4953866;28;20562;-65
2023/11/01 12:14:20;;;;;;;9.73;6.97;;;11.40;99.90;;;;;;4956946;28;20585;-64
2023/11/01 12:16:50;;;;;;;11.23;7.40;;;11.40;99.90;;;;;;4952886;28;20474;-64
2023/11/01 12:19:19;;;;;;;9.90;7.50;;;11.40;99.90;;;;;;4952384;28;20573;-65
2023/11/01 12:21:49;;;;;;;7.93;7.13;;;11.30;99.90;;;;;;4953012;28;20509;-64
2023/11/01 12:24:18;;;;;;;9.87;6.57;;;11.30;99.90;;;;;;4954307;28;20553;-62
2023/11/01 12:26:55;;;;;;;10.07;7.60;;;11.30;99.90;;;;;;4958339;28;20566;-64
2023/11/01 12:29:31;;;;;;;12.30;7.20;;;11.30;99.90;;;;;;4951499;28;20497;-64
2023/11/01 12:32:07;;;;;;;12.67;8.13;;;11.30;99.90;;;;;;4958516;28;20493;-65
2023/11/01 12:34:36;;;;;;;13.07;7.30;;;11.30;99.90;;;;;;4959107;28;20954;-64
2023/11/01 12:37:06;;;;;;;9.60;7.10;;;11.30;99.90;;;;;;4961259;28;20523;-65
2023/11/01 12:39:35;;;;;;;13.97;8.03;;;11.30;99.90;;;;;;4959032;28;20491;-64
2023/11/01 12:42:20;;;;;;;9.57;7.43;;;11.30;99.90;;;;;;4960305;28;20528;-65
2023/11/01 12:44:51;;;;;;;7.87;7.17;;;11.30;99.90;;;;;;4960484;28;20558;-65
2023/11/01 12:47:20;;;;;;;8.17;7.33;;;11.30;99.90;;;;;;4957785;28;20469;-66
2023/11/01 12:49:48;;;;;;;6.63;6.03;;;11.40;99.90;;;;;;4955897;28;20536;-65
2023/11/01 12:52:16;;;;;;;7.77;6.40;;;11.40;99.90;;;;;;4959060;28;20588;-65
2023/11/01 12:54:45;;;;;;;7.00;6.40;;;11.40;99.90;;;;;;4959809;28;20485;-65
2023/11/01 12:57:14;;;;;;;6.93;6.13;;;11.40;99.90;;;;;;4959027;28;20503;-65
2023/11/01 12:59:42;;;;;;;8.60;6.00;;;11.40;99.90;;;;;;4956854;28;20495;-64
2023/11/01 13:02:12;;;;;;;8.77;6.70;;;11.40;99.90;;;;;;4956567;28;21183;-65
2023/11/01 13:04:42;;;;;;;9.90;5.87;;;11.40;99.90;;;;;;4958389;28;20470;-62